createdAt,value
2018-02-09T00:03:00.003Z,33.73
2018-02-09T00:07:43.590Z,33.60
2018-02-09T00:12:26.905Z,32.63
2018-02-09T00:17:10.271Z,32.93
2018-02-09T00:21:53.587Z,33.00
2018-02-09T00:26:36.918Z,30.70
2018-02-09T00:31:20.265Z,30.73
2018-02-09T00:36:03.855Z,30.60
2018-02-09T00:40:47.964Z,33.57
2018-02-09T00:45:31.298Z,33.20
2018-02-09T00:50:14.662Z,32.93
2018-02-09T00:54:58.025Z,30.67
2018-02-09T00:59:41.353Z,33.97
2018-02-09T01:04:25.735Z,31.57
2018-02-09T01:09:09.819Z,33.27
2018-02-09T01:13:53.195Z,32.47
2018-02-09T01:18:36.594Z,33.43
2018-02-09T01:23:19.913Z,32.70
2018-02-09T01:28:03.252Z,31.20
2018-02-09T01:32:46.826Z,31.33
2018-02-09T01:37:30.238Z,30.53
2018-02-09T01:42:13.638Z,30.30
2018-02-09T01:46:57.023Z,30.53
2018-02-09T01:51:40.394Z,30.57
2018-02-09T01:56:23.744Z,29.93
2018-02-09T02:01:07.071Z,30.30
2018-02-09T02:05:50.770Z,29.43
2018-02-09T02:10:34.079Z,30.47
2018-02-09T02:15:17.412Z,31.53
2018-02-09T02:20:00.740Z,32.20
2018-02-09T02:24:44.355Z,29.00
2018-02-09T02:29:27.765Z,29.17
2018-02-09T02:34:11.210Z,29.40
2018-02-09T02:38:54.597Z,27.70
2018-02-09T02:43:38.038Z,28.20
2018-02-09T02:48:21.399Z,27.07
2018-02-09T02:53:04.971Z,28.43
2018-02-09T02:57:48.283Z,27.47
2018-02-09T03:02:31.629Z,30.07
2018-02-09T03:07:14.971Z,29.10
2018-02-09T03:11:58.306Z,26.63
2018-02-09T03:16:41.651Z,29.00
2018-02-09T03:21:25.008Z,31.40
2018-02-09T03:26:08.624Z,29.83
2018-02-09T03:30:52.675Z,34.73
2018-02-09T03:35:36.014Z,33.00
2018-02-09T03:40:19.348Z,34.40
2018-02-09T03:45:03.440Z,38.13
2018-02-09T03:49:46.760Z,37.80
2018-02-09T03:54:30.394Z,37.30
2018-02-09T03:59:13.730Z,38.80
2018-02-09T04:03:57.880Z,36.90
2018-02-09T04:08:41.202Z,36.30
2018-02-09T04:13:24.573Z,36.63
2018-02-09T04:18:08.735Z,36.63
2018-02-09T04:22:52.841Z,35.40
2018-02-09T04:27:36.130Z,36.97
2018-02-09T04:32:20.214Z,33.87
2018-02-09T04:37:03.557Z,33.20
2018-02-09T04:41:46.934Z,33.07
2018-02-09T04:46:30.263Z,34.03
2018-02-09T04:51:13.867Z,35.97
2018-02-09T04:55:57.926Z,33.83
2018-02-09T05:00:41.251Z,34.33
2018-02-09T05:05:24.634Z,35.40
2018-02-09T05:10:07.978Z,30.93
2018-02-09T05:14:51.304Z,36.20
2018-02-09T05:19:34.932Z,32.73
2018-02-09T05:24:18.241Z,34.80
2018-02-09T05:29:01.578Z,37.73
2018-02-09T05:33:44.920Z,36.37
2018-02-09T05:38:28.263Z,39.13
2018-02-09T05:43:11.595Z,35.87
2018-02-09T05:47:55.234Z,30.63
2018-02-09T05:52:38.541Z,37.27
2018-02-09T05:57:21.872Z,37.73
2018-02-09T06:02:05.219Z,33.60
2018-02-09T06:06:48.567Z,30.87
2018-02-09T06:11:31.920Z,33.43
2018-02-09T06:16:15.509Z,50.90
2018-02-09T06:20:58.816Z,37.37
2018-02-09T06:25:42.168Z,37.33
2018-02-09T06:30:25.500Z,34.43
2018-02-09T06:35:08.834Z,36.90
2018-02-09T06:39:52.165Z,34.63
2018-02-09T06:44:35.556Z,35.70
2018-02-09T06:49:19.931Z,37.30
2018-02-09T06:54:03.218Z,36.77
2018-02-09T06:58:46.583Z,38.03
2018-02-09T07:03:29.907Z,44.07
2018-02-09T07:08:13.296Z,43.37
2018-02-09T07:12:57.365Z,44.47
2018-02-09T07:17:41.030Z,43.00
2018-02-09T07:22:24.344Z,45.73
2018-02-09T07:27:07.670Z,46.03
2018-02-09T07:31:51.053Z,49.77
2018-02-09T07:36:34.408Z,44.97
2018-02-09T07:41:18.550Z,41.63
2018-02-09T07:46:01.880Z,37.50
2018-02-09T07:50:45.512Z,36.73
2018-02-09T07:55:29.650Z,45.37
2018-02-09T08:00:13.761Z,55.50
2018-02-09T08:04:57.120Z,55.90
2018-02-09T08:09:40.499Z,57.00
2018-02-09T08:14:24.597Z,38.43
2018-02-09T08:19:07.927Z,35.07
2018-02-09T08:23:51.274Z,31.00
2018-02-09T08:28:34.661Z,33.47
2018-02-09T08:33:17.977Z,36.50
2018-02-09T08:38:01.309Z,39.83
2018-02-09T08:42:44.627Z,39.63
2018-02-09T08:47:28.297Z,32.43
2018-02-09T08:52:11.607Z,32.33
2018-02-09T08:56:55.011Z,27.87
2018-02-09T09:01:39.154Z,29.67
2018-02-09T09:06:22.589Z,30.90
2018-02-09T09:11:05.959Z,29.70
2018-02-09T09:15:49.310Z,26.43
2018-02-09T09:20:32.638Z,25.10
2018-02-09T09:25:16.027Z,25.13
2018-02-09T09:29:59.395Z,27.13
2018-02-09T09:34:42.805Z,28.50
2018-02-09T09:39:26.204Z,26.17
2018-02-09T09:44:09.548Z,26.13
2018-02-09T09:48:53.754Z,23.30
2018-02-09T09:53:37.150Z,23.33
2018-02-09T09:58:20.509Z,26.87
2018-02-09T10:03:03.906Z,28.03
2018-02-09T10:07:47.322Z,35.40
2018-02-09T10:12:30.697Z,31.93
2018-02-09T10:17:14.087Z,32.20
2018-02-09T10:21:57.416Z,29.43
2018-02-09T10:26:40.836Z,29.70
2018-02-09T10:31:24.190Z,30.13
2018-02-09T10:36:08.402Z,29.10
2018-02-09T10:40:51.762Z,28.20
2018-02-09T10:45:35.147Z,29.10
2018-02-09T10:50:18.583Z,36.87
2018-02-09T10:55:02.024Z,30.40
2018-02-09T10:59:46.268Z,29.73
2018-02-09T11:04:30.387Z,29.30
2018-02-09T11:09:13.888Z,28.60
2018-02-09T11:13:57.959Z,27.40
2018-02-09T11:18:41.369Z,28.00
2018-02-09T11:23:24.805Z,26.67
2018-02-09T11:28:08.323Z,26.00
2018-02-09T11:32:52.570Z,28.37
2018-02-09T11:37:36.029Z,27.47
2018-02-09T11:42:19.368Z,26.50
2018-02-09T11:47:02.749Z,27.23
2018-02-09T11:51:46.880Z,28.50
2018-02-09T11:56:30.267Z,26.60
2018-02-09T12:01:13.620Z,27.40
2018-02-09T12:05:57.055Z,27.37
2018-02-09T12:10:40.436Z,29.43
2018-02-09T12:15:23.956Z,29.97
2018-02-09T12:20:07.305Z,29.03
2018-02-09T12:24:50.684Z,27.57
2018-02-09T12:29:34.858Z,29.40
2018-02-09T12:34:18.221Z,27.53
2018-02-09T12:39:01.671Z,28.17
2018-02-09T12:43:45.098Z,29.80
2018-02-09T12:48:28.429Z,30.53
2018-02-09T12:53:11.799Z,30.43
2018-02-09T12:57:55.247Z,29.60
2018-02-09T13:02:38.631Z,28.77
2018-02-09T13:07:22.007Z,28.37
2018-02-09T13:12:05.372Z,29.37
2018-02-09T13:16:49.348Z,29.30
2018-02-09T13:21:33.507Z,28.07
2018-02-09T13:26:32.068Z,29.77
2018-02-09T13:36:45.765Z,28.53
2018-02-09T13:41:29.450Z,30.60
2018-02-09T14:05:13.207Z,30.17
2018-02-09T14:09:56.643Z,30.00
2018-02-09T14:14:40.104Z,26.23
2018-02-09T14:19:23.765Z,31.03
2018-02-09T14:24:07.329Z,32.57
2018-02-09T14:28:50.747Z,33.67
2018-02-09T14:38:50.245Z,30.90
2018-02-09T14:43:33.672Z,32.37
2018-02-09T14:48:17.076Z,31.90
2018-02-09T14:53:00.638Z,28.90
2018-02-09T14:57:44.843Z,31.47
2018-02-09T15:02:28.289Z,31.90
2018-02-09T15:07:14.092Z,31.93
2018-02-09T15:11:57.770Z,33.30
2018-02-09T15:16:41.350Z,33.20
2018-02-09T15:21:24.844Z,33.53
2018-02-09T15:26:08.586Z,31.47
2018-02-09T15:30:52.008Z,31.73
2018-02-09T15:35:35.352Z,33.83
2018-02-09T15:40:18.935Z,33.57
2018-02-09T15:45:03.133Z,34.17
2018-02-09T15:49:46.588Z,35.17
2018-02-09T15:54:30.803Z,34.13
2018-02-09T15:59:15.324Z,36.97
2018-02-09T16:03:58.943Z,35.43
2018-02-09T16:08:43.034Z,36.60
2018-02-09T16:13:26.386Z,36.17
2018-02-09T16:18:09.725Z,34.90
2018-02-09T16:22:53.048Z,37.23
2018-02-09T16:27:36.448Z,37.80
2018-02-09T16:32:19.845Z,38.07
2018-02-09T16:37:03.199Z,39.83
2018-02-09T16:41:47.051Z,38.57
2018-02-09T16:46:30.653Z,39.10
2018-02-09T16:51:14.091Z,36.67
2018-02-09T16:55:57.557Z,39.43
2018-02-09T17:00:41.048Z,38.87
2018-02-09T17:05:25.234Z,39.27
2018-02-09T17:10:08.610Z,41.47
2018-02-09T17:14:52.456Z,38.23
2018-02-09T17:19:36.054Z,39.53
2018-02-09T17:24:19.567Z,38.57
2018-02-09T17:29:02.975Z,42.13
2018-02-09T17:33:46.368Z,41.10
2018-02-09T17:38:29.765Z,39.63
2018-02-09T17:43:13.184Z,42.10
2018-02-09T17:47:57.393Z,39.67
2018-02-09T17:52:40.767Z,42.30
2018-02-09T17:57:45.614Z,40.27
2018-02-09T18:02:29.873Z,44.60
2018-02-09T18:07:13.353Z,41.47
2018-02-09T18:11:56.823Z,44.83
2018-02-09T18:16:40.268Z,45.47
2018-02-09T18:21:23.655Z,45.70
2018-02-09T18:26:07.832Z,43.67
2018-02-09T18:30:51.261Z,47.43
2018-02-09T18:35:35.546Z,45.77
2018-02-09T18:40:19.911Z,46.03
2018-02-09T18:45:03.329Z,46.10
2018-02-09T18:49:48.425Z,48.57
2018-02-09T18:54:33.339Z,50.23
2018-02-09T18:59:16.803Z,47.90
2018-02-09T19:04:00.949Z,44.80
2018-02-09T19:08:50.391Z,40.37
2018-02-09T19:13:35.059Z,47.47
2018-02-09T19:18:19.365Z,43.80
2018-02-09T19:23:20.919Z,50.23
2018-02-09T19:28:05.536Z,44.10
2018-02-09T19:32:49.861Z,39.97
2018-02-09T19:37:33.396Z,42.77
2018-02-09T19:42:58.969Z,44.53
2018-02-09T19:47:42.765Z,43.87
2018-02-09T19:52:34.035Z,43.47
2018-02-09T19:57:18.411Z,43.60
2018-02-09T20:02:02.065Z,39.53
2018-02-09T20:06:45.537Z,43.27
2018-02-09T20:11:29.071Z,40.10
2018-02-09T20:16:12.506Z,40.27
2018-02-09T20:20:56.956Z,44.27
2018-02-09T20:25:42.308Z,41.07
2018-02-09T20:30:25.797Z,41.93
2018-02-09T20:35:10.784Z,42.47
2018-02-09T20:39:54.343Z,44.20
2018-02-09T20:44:38.037Z,44.17
2018-02-09T20:49:21.404Z,45.07
2018-02-09T20:54:05.610Z,42.23
2018-02-09T20:58:49.326Z,41.40
2018-02-09T21:03:33.000Z,41.57
2018-02-09T21:08:16.501Z,42.00
2018-02-09T21:13:00.964Z,43.07
2018-02-09T21:17:45.522Z,41.97
2018-02-09T21:22:28.860Z,40.30
2018-02-09T21:27:12.259Z,40.07
2018-02-09T21:31:56.372Z,40.60
2018-02-09T21:36:39.765Z,43.43
2018-02-09T21:41:23.110Z,47.43
2018-02-09T21:46:06.436Z,46.37
2018-02-09T21:50:49.799Z,46.67
2018-02-09T21:55:33.129Z,47.93
2018-02-09T22:00:16.516Z,45.53
2018-02-09T22:04:59.950Z,40.90
2018-02-09T22:09:43.267Z,47.63
2018-02-09T22:14:26.652Z,45.87
2018-02-09T22:19:09.978Z,46.27
2018-02-09T22:23:53.355Z,48.07
2018-02-09T22:28:37.471Z,44.07
2018-02-09T22:33:20.932Z,44.80
2018-02-09T22:38:04.268Z,43.37
2018-02-09T22:42:48.383Z,43.73
2018-02-09T22:47:31.705Z,48.83
2018-02-09T22:52:15.044Z,51.03
2018-02-09T22:56:58.394Z,48.57
2018-02-09T23:01:41.718Z,46.97
2018-02-09T23:06:25.126Z,46.63
2018-02-09T23:11:08.477Z,46.23
2018-02-09T23:15:52.582Z,46.07
2018-02-09T23:20:35.948Z,42.97
2018-02-09T23:25:20.006Z,42.90
2018-02-09T23:30:03.369Z,43.80
2018-02-09T23:34:46.686Z,45.80
2018-02-09T23:39:30.145Z,42.77
2018-02-09T23:44:13.450Z,42.07
2018-02-09T23:48:56.813Z,41.47
2018-02-09T23:53:40.133Z,42.67
2018-02-09T23:58:23.487Z,42.70
